sensor_id;sensor_type;location;lat;lon;timestamp;temperature;humidity
39079;DHT22;24829;49.208;12.080;2023-05-15T00:00:21;11.50;99.90
39079;DHT22;24829;49.208;12.080;2023-05-15T00:02:47;11.50;99.90
39079;DHT22;24829;49.208;12.080;2023-05-15T00:05:13;11.60;99.90
39079;DHT22;24829;49.208;12.080;2023-05-15T00:07:39;11.60;99.90
39079;DHT22;24829;49.208;12.080;2023-05-15T00:10:06;11.60;99.90
39079;DHT22;24829;49.208;12.080;2023-05-15T00:12:31;11.60;99.90
39079;DHT22;24829;49.208;12.080;2023-05-15T00:14:57;11.60;99.90
39079;DHT22;24829;49.208;12.080;2023-05-15T00:17:22;11.60;99.90
39079;DHT22;24829;49.208;12.080;2023-05-15T00:19:48;11.60;99.90
39079;DHT22;24829;49.208;12.080;2023-05-15T00:22:14;11.50;99.90
39079;DHT22;24829;49.208;12.080;2023-05-15T00:24:39;11.50;99.90
39079;DHT22;24829;49.208;12.080;2023-05-15T00:27:05;11.50;99.90
39079;DHT22;24829;49.208;12.080;2023-05-15T00:29:30;11.50;99.90
39079;DHT22;24829;49.208;12.080;2023-05-15T00:31:56;11.50;99.90
39079;DHT22;24829;49.208;12.080;2023-05-15T00:34:21;11.50;99.90
39079;DHT22;24829;49.208;12.080;2023-05-15T00:36:47;11.50;99.90
39079;DHT22;24829;49.208;12.080;2023-05-15T00:39:13;11.50;99.90
39079;DHT22;24829;49.208;12.080;2023-05-15T00:41:40;11.60;99.90
39079;DHT22;24829;49.208;12.080;2023-05-15T00:44:06;11.60;99.90
39079;DHT22;24829;49.208;12.080;2023-05-15T00:46:35;11.60;99.90
39079;DHT22;24829;49.208;12.080;2023-05-15T00:49:03;11.50;99.90
39079;DHT22;24829;49.208;12.080;2023-05-15T00:51:29;11.50;99.90
39079;DHT22;24829;49.208;12.080;2023-05-15T00:53:55;11.50;99.90
39079;DHT22;24829;49.208;12.080;2023-05-15T00:56:22;11.50;99.90
39079;DHT22;24829;49.208;12.080;2023-05-15T00:58:49;11.50;99.90
39079;DHT22;24829;49.208;12.080;2023-05-15T01:01:16;11.50;99.90
39079;DHT22;24829;49.208;12.080;2023-05-15T01:03:45;11.50;99.90
39079;DHT22;24829;49.208;12.080;2023-05-15T01:06:11;11.50;99.90
39079;DHT22;24829;49.208;12.080;2023-05-15T01:08:50;11.50;99.90
39079;DHT22;24829;49.208;12.080;2023-05-15T01:11:16;11.50;99.90
39079;DHT22;24829;49.208;12.080;2023-05-15T01:13:42;11.50;99.90
39079;DHT22;24829;49.208;12.080;2023-05-15T01:16:09;11.60;99.90
39079;DHT22;24829;49.208;12.080;2023-05-15T01:18:35;11.50;99.90
39079;DHT22;24829;49.208;12.080;2023-05-15T01:29:02;11.50;99.90
39079;DHT22;24829;49.208;12.080;2023-05-15T01:31:31;11.50;99.90
39079;DHT22;24829;49.208;12.080;2023-05-15T01:34:02;11.50;99.90
39079;DHT22;24829;49.208;12.080;2023-05-15T01:36:38;11.50;99.90
39079;DHT22;24829;49.208;12.080;2023-05-15T01:39:07;11.40;99.90
39079;DHT22;24829;49.208;12.080;2023-05-15T01:41:45;11.40;99.90
39079;DHT22;24829;49.208;12.080;2023-05-15T01:44:26;11.40;99.90
39079;DHT22;24829;49.208;12.080;2023-05-15T01:46:56;11.40;99.90
39079;DHT22;24829;49.208;12.080;2023-05-15T01:49:26;11.40;99.90
39079;DHT22;24829;49.208;12.080;2023-05-15T01:52:05;11.40;99.90
39079;DHT22;24829;49.208;12.080;2023-05-15T01:54:33;11.40;99.90
39079;DHT22;24829;49.208;12.080;2023-05-15T01:57:00;11.40;99.90
39079;DHT22;24829;49.208;12.080;2023-05-15T01:59:27;11.40;99.90
39079;DHT22;24829;49.208;12.080;2023-05-15T02:01:54;11.40;99.90
39079;DHT22;24829;49.208;12.080;2023-05-15T02:04:21;11.30;99.90
39079;DHT22;24829;49.208;12.080;2023-05-15T02:06:47;11.30;99.90
39079;DHT22;24829;49.208;12.080;2023-05-15T02:09:15;11.30;99.90
39079;DHT22;24829;49.208;12.080;2023-05-15T02:11:41;11.30;99.90
39079;DHT22;24829;49.208;12.080;2023-05-15T02:14:08;11.30;99.90
39079;DHT22;24829;49.208;12.080;2023-05-15T02:16:35;11.20;99.90
39079;DHT22;24829;49.208;12.080;2023-05-15T02:19:01;11.20;99.90
39079;DHT22;24829;49.208;12.080;2023-05-15T02:21:26;11.20;99.90
39079;DHT22;24829;49.208;12.080;2023-05-15T02:23:52;11.20;99.90
39079;DHT22;24829;49.208;12.080;2023-05-15T02:32:05;11.10;99.90
39079;DHT22;24829;49.208;12.080;2023-05-15T02:37:00;11.10;99.90
39079;DHT22;24829;49.208;12.080;2023-05-15T02:39:28;11.00;99.90
39079;DHT22;24829;49.208;12.080;2023-05-15T02:41:54;11.00;99.90
39079;DHT22;24829;49.208;12.080;2023-05-15T02:44:21;10.90;99.90
39079;DHT22;24829;49.208;12.080;2023-05-15T02:46:47;10.90;99.90
39079;DHT22;24829;49.208;12.080;2023-05-15T02:49:14;10.90;99.90
39079;DHT22;24829;49.208;12.080;2023-05-15T02:51:41;10.90;99.90
39079;DHT22;24829;49.208;12.080;2023-05-15T02:54:07;10.90;99.90
39079;DHT22;24829;49.208;12.080;2023-05-15T02:56:33;10.90;99.90
39079;DHT22;24829;49.208;12.080;2023-05-15T02:58:59;11.00;99.90
39079;DHT22;24829;49.208;12.080;2023-05-15T03:01:25;11.00;99.90
39079;DHT22;24829;49.208;12.080;2023-05-15T03:03:50;11.00;99.90
39079;DHT22;24829;49.208;12.080;2023-05-15T03:06:17;11.00;99.90
39079;DHT22;24829;49.208;12.080;2023-05-15T03:08:43;11.00;99.90
39079;DHT22;24829;49.208;12.080;2023-05-15T03:11:08;11.00;99.90
39079;DHT22;24829;49.208;12.080;2023-05-15T03:13:34;11.00;99.90
39079;DHT22;24829;49.208;12.080;2023-05-15T03:15:59;10.90;99.90
39079;DHT22;24829;49.208;12.080;2023-05-15T03:18:25;10.90;99.90
39079;DHT22;24829;49.208;12.080;2023-05-15T03:20:51;10.90;99.90
39079;DHT22;24829;49.208;12.080;2023-05-15T03:23:17;10.80;99.90
39079;DHT22;24829;49.208;12.080;2023-05-15T03:25:43;10.70;99.90
39079;DHT22;24829;49.208;12.080;2023-05-15T03:28:08;10.60;99.90
39079;DHT22;24829;49.208;12.080;2023-05-15T03:30:34;10.50;99.90
39079;DHT22;24829;49.208;12.080;2023-05-15T03:32:59;10.50;99.90
39079;DHT22;24829;49.208;12.080;2023-05-15T03:35:30;10.40;99.90
39079;DHT22;24829;49.208;12.080;2023-05-15T03:37:56;10.30;99.90
39079;DHT22;24829;49.208;12.080;2023-05-15T03:40:22;10.30;99.90
39079;DHT22;24829;49.208;12.080;2023-05-15T03:42:47;10.30;99.90
39079;DHT22;24829;49.208;12.080;2023-05-15T03:45:13;10.30;99.90
39079;DHT22;24829;49.208;12.080;2023-05-15T03:47:39;10.30;99.90
39079;DHT22;24829;49.208;12.080;2023-05-15T03:50:05;10.40;99.90
39079;DHT22;24829;49.208;12.080;2023-05-15T03:52:30;10.40;99.90
39079;DHT22;24829;49.208;12.080;2023-05-15T03:54:56;10.50;99.90
39079;DHT22;24829;49.208;12.080;2023-05-15T03:57:21;10.50;99.90
39079;DHT22;24829;49.208;12.080;2023-05-15T03:59:47;10.60;99.90
39079;DHT22;24829;49.208;12.080;2023-05-15T04:02:12;10.60;99.90
39079;DHT22;24829;49.208;12.080;2023-05-15T04:04:38;10.50;99.90
39079;DHT22;24829;49.208;12.080;2023-05-15T04:07:04;10.60;99.90
39079;DHT22;24829;49.208;12.080;2023-05-15T04:09:30;10.50;99.90
39079;DHT22;24829;49.208;12.080;2023-05-15T04:11:55;10.60;99.90
39079;DHT22;24829;49.208;12.080;2023-05-15T04:14:21;10.60;99.90
39079;DHT22;24829;49.208;12.080;2023-05-15T04:16:46;10.50;99.90
39079;DHT22;24829;49.208;12.080;2023-05-15T04:19:12;10.50;99.90
39079;DHT22;24829;49.208;12.080;2023-05-15T04:21:37;10.50;99.90
39079;DHT22;24829;49.208;12.080;2023-05-15T04:24:03;10.50;99.90
39079;DHT22;24829;49.208;12.080;2023-05-15T04:26:29;10.50;99.90
39079;DHT22;24829;49.208;12.080;2023-05-15T04:28:54;10.50;99.90
39079;DHT22;24829;49.208;12.080;2023-05-15T04:31:22;10.50;99.90
39079;DHT22;24829;49.208;12.080;2023-05-15T04:33:47;10.50;99.90
39079;DHT22;24829;49.208;12.080;2023-05-15T04:36:13;10.50;99.90
39079;DHT22;24829;49.208;12.080;2023-05-15T04:38:39;10.50;99.90
39079;DHT22;24829;49.208;12.080;2023-05-15T04:41:04;10.50;99.90
39079;DHT22;24829;49.208;12.080;2023-05-15T04:43:30;10.50;99.90
39079;DHT22;24829;49.208;12.080;2023-05-15T04:45:56;10.50;99.90
39079;DHT22;24829;49.208;12.080;2023-05-15T04:48:21;10.50;99.90
39079;DHT22;24829;49.208;12.080;2023-05-15T04:50:47;10.60;99.90
39079;DHT22;24829;49.208;12.080;2023-05-15T04:53:12;10.60;99.90
39079;DHT22;24829;49.208;12.080;2023-05-15T04:55:38;10.60;99.90
39079;DHT22;24829;49.208;12.080;2023-05-15T04:58:04;10.70;99.90
39079;DHT22;24829;49.208;12.080;2023-05-15T05:00:29;10.70;99.90
39079;DHT22;24829;49.208;12.080;2023-05-15T05:02:55;10.70;99.90
39079;DHT22;24829;49.208;12.080;2023-05-15T05:05:20;10.80;99.90
39079;DHT22;24829;49.208;12.080;2023-05-15T05:07:46;10.80;99.90
39079;DHT22;24829;49.208;12.080;2023-05-15T05:10:12;10.90;99.90
39079;DHT22;24829;49.208;12.080;2023-05-15T05:12:37;10.90;99.90
39079;DHT22;24829;49.208;12.080;2023-05-15T05:15:03;10.90;99.90
39079;DHT22;24829;49.208;12.080;2023-05-15T05:17:29;10.90;99.90
39079;DHT22;24829;49.208;12.080;2023-05-15T05:19:55;10.80;99.90
39079;DHT22;24829;49.208;12.080;2023-05-15T05:22:21;10.80;99.90
39079;DHT22;24829;49.208;12.080;2023-05-15T05:24:46;10.70;99.90
39079;DHT22;24829;49.208;12.080;2023-05-15T05:27:12;10.70;99.90
39079;DHT22;24829;49.208;12.080;2023-05-15T05:29:38;10.60;99.90
39079;DHT22;24829;49.208;12.080;2023-05-15T05:32:04;10.60;99.90
39079;DHT22;24829;49.208;12.080;2023-05-15T05:34:31;10.60;99.90
39079;DHT22;24829;49.208;12.080;2023-05-15T05:36:56;10.70;99.90
39079;DHT22;24829;49.208;12.080;2023-05-15T05:39:22;10.80;99.90
39079;DHT22;24829;49.208;12.080;2023-05-15T05:41:47;10.90;99.90
39079;DHT22;24829;49.208;12.080;2023-05-15T05:44:13;11.00;99.90
39079;DHT22;24829;49.208;12.080;2023-05-15T05:46:38;11.10;99.90
39079;DHT22;24829;49.208;12.080;2023-05-15T05:49:04;11.20;99.90
39079;DHT22;24829;49.208;12.080;2023-05-15T05:51:30;11.20;99.90
39079;DHT22;24829;49.208;12.080;2023-05-15T05:53:56;11.30;99.90
39079;DHT22;24829;49.208;12.080;2023-05-15T05:56:21;11.40;99.90
39079;DHT22;24829;49.208;12.080;2023-05-15T05:58:47;11.40;99.90
39079;DHT22;24829;49.208;12.080;2023-05-15T06:01:12;11.50;99.90
39079;DHT22;24829;49.208;12.080;2023-05-15T06:03:38;11.50;99.90
39079;DHT22;24829;49.208;12.080;2023-05-15T06:06:04;11.60;99.90
39079;DHT22;24829;49.208;12.080;2023-05-15T06:08:30;11.60;99.90
39079;DHT22;24829;49.208;12.080;2023-05-15T06:10:56;11.60;99.90
39079;DHT22;24829;49.208;12.080;2023-05-15T06:13:21;11.70;99.90
39079;DHT22;24829;49.208;12.080;2023-05-15T06:15:47;11.70;99.90
39079;DHT22;24829;49.208;12.080;2023-05-15T06:18:13;11.80;99.90
39079;DHT22;24829;49.208;12.080;2023-05-15T06:20:38;11.90;99.90
39079;DHT22;24829;49.208;12.080;2023-05-15T06:23:04;12.00;99.90
39079;DHT22;24829;49.208;12.080;2023-05-15T06:25:29;12.10;99.90
39079;DHT22;24829;49.208;12.080;2023-05-15T06:27:55;12.20;99.90
39079;DHT22;24829;49.208;12.080;2023-05-15T06:30:21;12.30;99.90
39079;DHT22;24829;49.208;12.080;2023-05-15T06:32:47;12.30;99.90
39079;DHT22;24829;49.208;12.080;2023-05-15T06:35:12;12.40;99.90
39079;DHT22;24829;49.208;12.080;2023-05-15T06:37:38;12.50;99.90
39079;DHT22;24829;49.208;12.080;2023-05-15T06:40:04;12.60;99.90
39079;DHT22;24829;49.208;12.080;2023-05-15T06:42:30;12.60;99.90
39079;DHT22;24829;49.208;12.080;2023-05-15T06:44:56;12.60;99.90
39079;DHT22;24829;49.208;12.080;2023-05-15T06:47:21;12.70;99.90
39079;DHT22;24829;49.208;12.080;2023-05-15T06:49:47;12.70;99.90
39079;DHT22;24829;49.208;12.080;2023-05-15T06:52:13;12.80;99.90
39079;DHT22;24829;49.208;12.080;2023-05-15T06:54:38;12.80;99.90
39079;DHT22;24829;49.208;12.080;2023-05-15T06:57:05;12.90;99.90
39079;DHT22;24829;49.208;12.080;2023-05-15T06:59:31;13.00;99.90
39079;DHT22;24829;49.208;12.080;2023-05-15T07:02:02;13.10;99.90
39079;DHT22;24829;49.208;12.080;2023-05-15T07:04:27;13.20;99.90
39079;DHT22;24829;49.208;12.080;2023-05-15T07:06:55;13.30;99.90
39079;DHT22;24829;49.208;12.080;2023-05-15T07:09:20;13.50;99.90
39079;DHT22;24829;49.208;12.080;2023-05-15T07:11:46;13.70;99.90
39079;DHT22;24829;49.208;12.080;2023-05-15T07:14:11;13.90;99.90
39079;DHT22;24829;49.208;12.080;2023-05-15T07:16:37;14.00;99.90
39079;DHT22;24829;49.208;12.080;2023-05-15T07:19:03;14.10;99.90
39079;DHT22;24829;49.208;12.080;2023-05-15T07:21:28;14.20;99.90
39079;DHT22;24829;49.208;12.080;2023-05-15T07:23:54;14.30;99.90
39079;DHT22;24829;49.208;12.080;2023-05-15T07:26:19;14.30;99.90
39079;DHT22;24829;49.208;12.080;2023-05-15T07:28:45;14.40;99.90
39079;DHT22;24829;49.208;12.080;2023-05-15T07:31:11;14.40;99.90
39079;DHT22;24829;49.208;12.080;2023-05-15T07:33:36;14.40;99.90
39079;DHT22;24829;49.208;12.080;2023-05-15T07:36:02;14.50;99.90
39079;DHT22;24829;49.208;12.080;2023-05-15T07:38:27;14.60;99.90
39079;DHT22;24829;49.208;12.080;2023-05-15T07:40:53;14.80;99.90
39079;DHT22;24829;49.208;12.080;2023-05-15T07:43:18;14.90;99.90
39079;DHT22;24829;49.208;12.080;2023-05-15T07:45:44;15.20;99.90
39079;DHT22;24829;49.208;12.080;2023-05-15T07:48:17;15.50;99.90
39079;DHT22;24829;49.208;12.080;2023-05-15T07:50:44;15.80;99.90
39079;DHT22;24829;49.208;12.080;2023-05-15T07:53:11;16.10;99.90
39079;DHT22;24829;49.208;12.080;2023-05-15T07:55:36;16.40;99.90
39079;DHT22;24829;49.208;12.080;2023-05-15T07:58:02;16.60;99.90
39079;DHT22;24829;49.208;12.080;2023-05-15T08:00:27;16.90;99.90
39079;DHT22;24829;49.208;12.080;2023-05-15T08:02:53;17.30;99.90
39079;DHT22;24829;49.208;12.080;2023-05-15T08:05:19;17.60;99.90
39079;DHT22;24829;49.208;12.080;2023-05-15T08:07:44;17.70;99.90
39079;DHT22;24829;49.208;12.080;2023-05-15T08:10:10;18.00;99.90
39079;DHT22;24829;49.208;12.080;2023-05-15T08:12:36;18.20;99.90
39079;DHT22;24829;49.208;12.080;2023-05-15T08:15:02;18.40;99.90
39079;DHT22;24829;49.208;12.080;2023-05-15T08:17:28;18.60;99.90
39079;DHT22;24829;49.208;12.080;2023-05-15T08:19:54;18.70;99.90
39079;DHT22;24829;49.208;12.080;2023-05-15T08:22:20;18.80;99.90
39079;DHT22;24829;49.208;12.080;2023-05-15T08:24:46;18.90;99.90
39079;DHT22;24829;49.208;12.080;2023-05-15T08:27:12;19.00;99.90
39079;DHT22;24829;49.208;12.080;2023-05-15T08:29:38;18.90;99.90
39079;DHT22;24829;49.208;12.080;2023-05-15T08:32:04;19.00;99.90
39079;DHT22;24829;49.208;12.080;2023-05-15T08:34:30;19.00;99.90
39079;DHT22;24829;49.208;12.080;2023-05-15T08:36:57;18.70;99.90
39079;DHT22;24829;49.208;12.080;2023-05-15T08:39:22;18.40;99.90
39079;DHT22;24829;49.208;12.080;2023-05-15T08:44:20;18.00;99.90
39079;DHT22;24829;49.208;12.080;2023-05-15T08:46:46;18.10;99.90
39079;DHT22;24829;49.208;12.080;2023-05-15T08:49:23;18.30;99.90
39079;DHT22;24829;49.208;12.080;2023-05-15T08:51:52;18.60;99.90
39079;DHT22;24829;49.208;12.080;2023-05-15T08:54:18;18.90;99.90
39079;DHT22;24829;49.208;12.080;2023-05-15T08:56:44;19.00;99.90
39079;DHT22;24829;49.208;12.080;2023-05-15T08:59:09;19.00;99.90
39079;DHT22;24829;49.208;12.080;2023-05-15T09:01:35;19.10;99.90
39079;DHT22;24829;49.208;12.080;2023-05-15T09:04:03;19.10;99.90
39079;DHT22;24829;49.208;12.080;2023-05-15T09:06:29;18.90;99.90
39079;DHT22;24829;49.208;12.080;2023-05-15T09:08:55;18.80;99.90
39079;DHT22;24829;49.208;12.080;2023-05-15T09:11:23;19.00;99.90
39079;DHT22;24829;49.208;12.080;2023-05-15T09:13:48;19.00;99.90
39079;DHT22;24829;49.208;12.080;2023-05-15T09:16:15;18.90;99.90
39079;DHT22;24829;49.208;12.080;2023-05-15T09:18:40;18.80;99.90
39079;DHT22;24829;49.208;12.080;2023-05-15T09:21:28;18.60;99.90
39079;DHT22;24829;49.208;12.080;2023-05-15T09:24:19;18.40;99.90
39079;DHT22;24829;49.208;12.080;2023-05-15T09:27:01;18.10;99.90
39079;DHT22;24829;49.208;12.080;2023-05-15T09:29:29;17.90;99.90
39079;DHT22;24829;49.208;12.080;2023-05-15T09:31:55;17.80;99.90
39079;DHT22;24829;49.208;12.080;2023-05-15T09:34:40;17.70;99.90
39079;DHT22;24829;49.208;12.080;2023-05-15T09:37:08;17.40;99.90
39079;DHT22;24829;49.208;12.080;2023-05-15T09:39:41;17.20;99.90
39079;DHT22;24829;49.208;12.080;2023-05-15T09:42:09;17.10;99.90
39079;DHT22;24829;49.208;12.080;2023-05-15T09:44:40;16.90;99.90
39079;DHT22;24829;49.208;12.080;2023-05-15T09:47:05;16.80;99.90
39079;DHT22;24829;49.208;12.080;2023-05-15T09:49:31;16.80;99.90
39079;DHT22;24829;49.208;12.080;2023-05-15T09:51:58;16.60;99.90
39079;DHT22;24829;49.208;12.080;2023-05-15T09:54:25;16.50;99.90
39079;DHT22;24829;49.208;12.080;2023-05-15T09:57:10;16.40;99.90
39079;DHT22;24829;49.208;12.080;2023-05-15T09:59:44;16.20;99.90
39079;DHT22;24829;49.208;12.080;2023-05-15T10:02:13;16.10;99.90
39079;DHT22;24829;49.208;12.080;2023-05-15T10:04:53;16.00;99.90
39079;DHT22;24829;49.208;12.080;2023-05-15T10:07:26;15.90;99.90
39079;DHT22;24829;49.208;12.080;2023-05-15T10:09:52;15.80;99.90
39079;DHT22;24829;49.208;12.080;2023-05-15T10:12:18;15.70;99.90
39079;DHT22;24829;49.208;12.080;2023-05-15T10:14:44;15.70;99.90
39079;DHT22;24829;49.208;12.080;2023-05-15T10:17:10;15.60;99.90
39079;DHT22;24829;49.208;12.080;2023-05-15T10:19:38;15.60;99.90
39079;DHT22;24829;49.208;12.080;2023-05-15T10:22:04;15.60;99.90
39079;DHT22;24829;49.208;12.080;2023-05-15T10:24:30;15.70;99.90
39079;DHT22;24829;49.208;12.080;2023-05-15T10:26:57;16.00;99.90
39079;DHT22;24829;49.208;12.080;2023-05-15T10:29:24;16.40;99.90
39079;DHT22;24829;49.208;12.080;2023-05-15T10:31:51;16.60;99.90
39079;DHT22;24829;49.208;12.080;2023-05-15T10:34:17;16.90;99.90
39079;DHT22;24829;49.208;12.080;2023-05-15T10:36:44;17.10;99.90
39079;DHT22;24829;49.208;12.080;2023-05-15T10:39:10;17.40;99.90
39079;DHT22;24829;49.208;12.080;2023-05-15T10:41:37;17.40;99.90
39079;DHT22;24829;49.208;12.080;2023-05-15T10:44:04;17.50;99.90
39079;DHT22;24829;49.208;12.080;2023-05-15T10:46:32;17.60;99.90
39079;DHT22;24829;49.208;12.080;2023-05-15T10:48:59;17.70;99.90
39079;DHT22;24829;49.208;12.080;2023-05-15T10:51:27;17.70;99.90
39079;DHT22;24829;49.208;12.080;2023-05-15T10:53:54;17.60;99.90
39079;DHT22;24829;49.208;12.080;2023-05-15T10:56:33;17.50;99.90
39079;DHT22;24829;49.208;12.080;2023-05-15T10:59:10;17.30;99.90
39079;DHT22;24829;49.208;12.080;2023-05-15T11:01:38;17.10;99.90
39079;DHT22;24829;49.208;12.080;2023-05-15T11:04:08;17.00;99.90
39079;DHT22;24829;49.208;12.080;2023-05-15T11:06:34;16.90;99.90
39079;DHT22;24829;49.208;12.080;2023-05-15T11:14:19;17.10;99.90
39079;DHT22;24829;49.208;12.080;2023-05-15T11:19:32;17.40;99.90
39079;DHT22;24829;49.208;12.080;2023-05-15T11:25:06;17.90;99.90
39079;DHT22;24829;49.208;12.080;2023-05-15T11:30:13;18.30;99.90
39079;DHT22;24829;49.208;12.080;2023-05-15T11:32:58;18.60;99.90
39079;DHT22;24829;49.208;12.080;2023-05-15T11:35:33;18.80;99.90
39079;DHT22;24829;49.208;12.080;2023-05-15T11:38:01;18.90;99.90
39079;DHT22;24829;49.208;12.080;2023-05-15T11:40:29;18.80;99.90
39079;DHT22;24829;49.208;12.080;2023-05-15T11:45:29;17.80;99.90
39079;DHT22;24829;49.208;12.080;2023-05-15T11:47:55;17.20;99.90
39079;DHT22;24829;49.208;12.080;2023-05-15T11:50:21;16.70;99.90
39079;DHT22;24829;49.208;12.080;2023-05-15T11:52:48;16.40;99.90
39079;DHT22;24829;49.208;12.080;2023-05-15T11:55:15;16.00;99.90
39079;DHT22;24829;49.208;12.080;2023-05-15T11:57:40;15.70;99.90
39079;DHT22;24829;49.208;12.080;2023-05-15T12:00:07;15.40;99.90
39079;DHT22;24829;49.208;12.080;2023-05-15T12:02:34;15.20;99.90
39079;DHT22;24829;49.208;12.080;2023-05-15T12:04:59;15.10;99.90
39079;DHT22;24829;49.208;12.080;2023-05-15T12:07:25;15.10;99.90
39079;DHT22;24829;49.208;12.080;2023-05-15T12:09:50;15.20;99.90
39079;DHT22;24829;49.208;12.080;2023-05-15T12:12:17;15.30;99.90
39079;DHT22;24829;49.208;12.080;2023-05-15T12:14:42;15.50;99.90
39079;DHT22;24829;49.208;12.080;2023-05-15T12:17:08;15.70;99.90
39079;DHT22;24829;49.208;12.080;2023-05-15T12:19:34;15.90;99.90
39079;DHT22;24829;49.208;12.080;2023-05-15T12:22:04;16.10;99.90
39079;DHT22;24829;49.208;12.080;2023-05-15T12:24:29;16.40;99.90
39079;DHT22;24829;49.208;12.080;2023-05-15T12:26:55;16.60;99.90
39079;DHT22;24829;49.208;12.080;2023-05-15T12:29:21;16.80;99.90
39079;DHT22;24829;49.208;12.080;2023-05-15T12:31:46;17.00;99.90
39079;DHT22;24829;49.208;12.080;2023-05-15T12:34:12;17.20;99.90
39079;DHT22;24829;49.208;12.080;2023-05-15T12:36:40;17.30;99.90
39079;DHT22;24829;49.208;12.080;2023-05-15T12:39:06;17.50;99.90
39079;DHT22;24829;49.208;12.080;2023-05-15T12:41:32;17.60;99.90
39079;DHT22;24829;49.208;12.080;2023-05-15T12:43:58;17.70;99.90
39079;DHT22;24829;49.208;12.080;2023-05-15T12:46:30;17.80;99.90
39079;DHT22;24829;49.208;12.080;2023-05-15T12:49:00;17.80;99.90
39079;DHT22;24829;49.208;12.080;2023-05-15T12:51:26;18.00;99.90
39079;DHT22;24829;49.208;12.080;2023-05-15T12:53:55;18.10;99.90
39079;DHT22;24829;49.208;12.080;2023-05-15T12:56:22;18.20;99.90
39079;DHT22;24829;49.208;12.080;2023-05-15T12:58:48;18.20;99.90
39079;DHT22;24829;49.208;12.080;2023-05-15T13:01:15;18.20;99.90
39079;DHT22;24829;49.208;12.080;2023-05-15T13:03:44;18.20;99.90
39079;DHT22;24829;49.208;12.080;2023-05-15T13:06:10;18.30;99.90
39079;DHT22;24829;49.208;12.080;2023-05-15T13:08:40;18.40;99.90
39079;DHT22;24829;49.208;12.080;2023-05-15T13:11:11;18.50;99.90
39079;DHT22;24829;49.208;12.080;2023-05-15T13:13:42;18.40;99.90
39079;DHT22;24829;49.208;12.080;2023-05-15T13:18:44;18.50;99.90
39079;DHT22;24829;49.208;12.080;2023-05-15T13:21:09;18.60;99.90
39079;DHT22;24829;49.208;12.080;2023-05-15T13:23:35;18.70;99.90
39079;DHT22;24829;49.208;12.080;2023-05-15T13:26:01;18.90;99.90
39079;DHT22;24829;49.208;12.080;2023-05-15T13:28:26;19.10;99.90
39079;DHT22;24829;49.208;12.080;2023-05-15T13:30:52;19.20;99.90
39079;DHT22;24829;49.208;12.080;2023-05-15T13:33:17;19.40;99.90
39079;DHT22;24829;49.208;12.080;2023-05-15T13:35:43;19.30;99.90
39079;DHT22;24829;49.208;12.080;2023-05-15T13:38:08;19.20;99.90
39079;DHT22;24829;49.208;12.080;2023-05-15T13:40:35;19.10;99.90
39079;DHT22;24829;49.208;12.080;2023-05-15T13:43:01;18.80;99.90
39079;DHT22;24829;49.208;12.080;2023-05-15T13:45:27;18.80;99.90
39079;DHT22;24829;49.208;12.080;2023-05-15T13:47:54;18.60;99.90
39079;DHT22;24829;49.208;12.080;2023-05-15T13:50:19;18.40;99.90
39079;DHT22;24829;49.208;12.080;2023-05-15T13:52:45;18.30;99.90
39079;DHT22;24829;49.208;12.080;2023-05-15T13:55:11;18.20;99.90
39079;DHT22;24829;49.208;12.080;2023-05-15T13:57:38;18.00;99.90
39079;DHT22;24829;49.208;12.080;2023-05-15T14:00:07;17.90;99.90
39079;DHT22;24829;49.208;12.080;2023-05-15T14:02:35;17.80;99.90
39079;DHT22;24829;49.208;12.080;2023-05-15T14:05:01;17.80;99.90
39079;DHT22;24829;49.208;12.080;2023-05-15T14:07:27;18.00;99.90
39079;DHT22;24829;49.208;12.080;2023-05-15T14:09:52;18.20;99.90
39079;DHT22;24829;49.208;12.080;2023-05-15T14:12:18;18.30;99.90
39079;DHT22;24829;49.208;12.080;2023-05-15T14:14:47;18.30;99.90
39079;DHT22;24829;49.208;12.080;2023-05-15T14:17:13;18.10;99.90
39079;DHT22;24829;49.208;12.080;2023-05-15T14:19:39;18.10;99.90
39079;DHT22;24829;49.208;12.080;2023-05-15T14:22:05;18.00;99.90
39079;DHT22;24829;49.208;12.080;2023-05-15T14:24:30;17.90;99.90
39079;DHT22;24829;49.208;12.080;2023-05-15T14:26:56;17.80;99.90
39079;DHT22;24829;49.208;12.080;2023-05-15T14:29:21;17.80;99.90
39079;DHT22;24829;49.208;12.080;2023-05-15T14:31:47;17.70;99.90
39079;DHT22;24829;49.208;12.080;2023-05-15T14:34:13;17.70;99.90
39079;DHT22;24829;49.208;12.080;2023-05-15T14:36:39;17.70;99.90
39079;DHT22;24829;49.208;12.080;2023-05-15T14:39:04;17.80;99.90
39079;DHT22;24829;49.208;12.080;2023-05-15T14:41:30;17.80;99.90
39079;DHT22;24829;49.208;12.080;2023-05-15T14:43:56;17.80;99.90
39079;DHT22;24829;49.208;12.080;2023-05-15T14:46:21;17.90;99.90
39079;DHT22;24829;49.208;12.080;2023-05-15T14:48:47;17.90;99.90
39079;DHT22;24829;49.208;12.080;2023-05-15T14:51:12;18.00;99.90
39079;DHT22;24829;49.208;12.080;2023-05-15T14:53:38;18.00;99.90
39079;DHT22;24829;49.208;12.080;2023-05-15T14:56:04;18.00;99.90
39079;DHT22;24829;49.208;12.080;2023-05-15T14:58:29;18.10;99.90
39079;DHT22;24829;49.208;12.080;2023-05-15T15:00:55;18.10;99.90
39079;DHT22;24829;49.208;12.080;2023-05-15T15:03:21;18.10;99.90
39079;DHT22;24829;49.208;12.080;2023-05-15T15:05:48;18.00;99.90
39079;DHT22;24829;49.208;12.080;2023-05-15T15:08:15;18.00;99.90
39079;DHT22;24829;49.208;12.080;2023-05-15T15:10:40;18.00;99.90
39079;DHT22;24829;49.208;12.080;2023-05-15T15:13:08;17.90;99.90
39079;DHT22;24829;49.208;12.080;2023-05-15T15:15:35;17.90;99.90
39079;DHT22;24829;49.208;12.080;2023-05-15T15:18:00;17.90;99.90
39079;DHT22;24829;49.208;12.080;2023-05-15T15:20:27;17.80;99.90
39079;DHT22;24829;49.208;12.080;2023-05-15T15:22:53;17.70;99.90
39079;DHT22;24829;49.208;12.080;2023-05-15T15:25:20;17.70;99.90
39079;DHT22;24829;49.208;12.080;2023-05-15T15:27:46;17.60;99.90
39079;DHT22;24829;49.208;12.080;2023-05-15T15:30:13;17.60;99.90
39079;DHT22;24829;49.208;12.080;2023-05-15T15:32:39;17.60;99.90
39079;DHT22;24829;49.208;12.080;2023-05-15T15:35:05;17.50;99.90
39079;DHT22;24829;49.208;12.080;2023-05-15T15:37:34;17.60;99.90
39079;DHT22;24829;49.208;12.080;2023-05-15T15:40:02;17.70;99.90
39079;DHT22;24829;49.208;12.080;2023-05-15T15:42:30;17.80;99.90
39079;DHT22;24829;49.208;12.080;2023-05-15T15:44:57;17.80;99.90
39079;DHT22;24829;49.208;12.080;2023-05-15T15:47:22;17.90;99.90
39079;DHT22;24829;49.208;12.080;2023-05-15T15:49:52;18.00;99.90